Anderson, Argentina
Current Conditions -  °F | °C
As of 5:00 AM on Friday 24 Oct 2014 (Local Time) from SAEZ Reporting Station
Broken Clouds Broken Clouds  
Wind Chill: 20°   Ceiling: 600
Heat Index: 20°   Visibility: 5mi
Dew Point: 17°   Wind: 7mph
Humidity: 83%   Direction: 110°ESE
Pressure: 30"   Gusts: NA
Location:  35.22°S, 60.17°W
Report Text: SAEZ 240800Z 11006KT 8000 BKN006 20/17 Q1016
Loading
Personal Weather Stations






























Interactive Weather Map
Tropical Storm Tracking
New forecast layout! Learn more

10-Day Weather Forecast

Advertisements
Track Severe Weather on mobile